Back to Top

Language: 

My Weather Underground Personal Weather Station Historical Data with Graphs...

Delerius Weather Station Historical Data
Daily Summary for January 6, 2018 Units:  Both    English   Metric
« Previous Day
Next Day »
Daily Weekly Monthly Yearly Custom
  High: Low: Average:
Temperature: 42.6 °F /  5.9 °C 34.5 °F /  1.4 °C 37.9 °F /  3.3 °C
Dew Point: 37.8 °F /  3.2 °C 32.0 °F /  0 °C 35.3 °F /  1.8 °C
Humidity: 96 % 76 % 90 %
Wind Speed: 12.0 mph /  19.3 km/h - 3.7 mph /  6 km/h
Wind Gust: 22.0 mph /  35.4 km/h - -
Wind:- - SSE
Pressure: 30.30 in /  1026 hPa 29.54 in /  1000.2 hPa -
Precipitation: 0.04 in /  1.02 mm    
Historical Graphs
 
 
Tabular Data for January 6, 2018
Time Temperature Dew Point Pressure Wind Wind Speed Wind Gust Humidity Rainfall Rate (Hourly) solar Conditions
00:04 36.0 °F /  2.2 °C 34.9 °F /  1.6 °C 29.54 in /  1000.2 hPa NW 5.0 mph /  8 km/h 8.0 mph /  12.9 km/h 96 % 0.00 in /  0 mm 0 W/m2
00:05 36.0 °F /  2.2 °C 34.9 °F /  1.6 °C 29.54 in /  1000.2 hPa NW 5.0 mph /  8 km/h 8.0 mph /  12.9 km/h 96 % 0.00 in /  0 mm 0 W/m2
00:10 36.3 °F /  2.4 °C 35.3 °F /  1.8 °C 29.55 in /  1000.6 hPa NW 7.0 mph /  11.3 km/h 10.0 mph /  16.1 km/h 96 % 0.00 in /  0 mm 0 W/m2
00:14 36.7 °F /  2.6 °C 35.6 °F /  2 °C 29.55 in /  1000.6 hPa NW 7.0 mph /  11.3 km/h 9.0 mph /  14.5 km/h 96 % 0.00 in /  0 mm 0 W/m2
00:19 36.7 °F /  2.6 °C 35.4 °F /  1.9 °C 29.55 in /  1000.6 hPa NW 4.0 mph /  6.4 km/h 6.0 mph /  9.7 km/h 95 % 0.00 in /  0 mm 0 W/m2
00:20 36.9 °F /  2.7 °C 35.6 °F /  2 °C 29.54 in /  1000.2 hPa NW 3.0 mph /  4.8 km/h 5.0 mph /  8 km/h 95 % 0.00 in /  0 mm 0 W/m2
00:25 36.9 °F /  2.7 °C 35.6 °F /  2 °C 29.55 in /  1000.6 hPa WNW 3.0 mph /  4.8 km/h 6.0 mph /  9.7 km/h 95 % 0.00 in /  0 mm 0 W/m2
00:28 36.9 °F /  2.7 °C 35.6 °F /  2 °C 29.55 in /  1000.6 hPa WNW 3.0 mph /  4.8 km/h 5.0 mph /  8 km/h 95 % 0.00 in /  0 mm 0 W/m2
00:31 36.7 °F /  2.6 °C 35.4 °F /  1.9 °C 29.55 in /  1000.6 hPa WNW 1.0 mph /  1.6 km/h 4.0 mph /  6.4 km/h 95 % 0.00 in /  0 mm 0 W/m2
00:33 36.7 °F /  2.6 °C 35.4 °F /  1.9 °C 29.55 in /  1000.6 hPa Calm   3.0 mph /  4.8 km/h 95 % 0.00 in /  0 mm 0 W/m2
00:38 36.7 °F /  2.6 °C 35.4 °F /  1.9 °C 29.55 in /  1000.6 hPa WNW 1.0 mph /  1.6 km/h 5.0 mph /  8 km/h 95 % 0.00 in /  0 mm 0 W/m2
00:39 36.7 °F /  2.6 °C 35.4 °F /  1.9 °C 29.55 in /  1000.6 hPa Calm   3.0 mph /  4.8 km/h 95 % 0.00 in /  0 mm 0 W/m2
00:44 36.7 °F /  2.6 °C 35.4 °F /  1.9 °C 29.55 in /  1000.6 hPa Calm   1.0 mph /  1.6 km/h 95 % 0.00 in /  0 mm 0 W/m2
00:49 36.7 °F /  2.6 °C 35.1 °F /  1.7 °C 29.56 in /  1000.9 hPa WNW 1.0 mph /  1.6 km/h 2.0 mph /  3.2 km/h 94 % 0.00 in /  0 mm 0 W/m2
00:54 36.7 °F /  2.6 °C 35.1 °F /  1.7 °C 29.56 in /  1000.9 hPa Calm   2.0 mph /  3.2 km/h 94 % 0.00 in /  0 mm 0 W/m2
01:03 36.7 °F /  2.6 °C 35.4 °F /  1.9 °C 29.56 in /  1000.9 hPa NW 2.0 mph /  3.2 km/h 5.0 mph /  8 km/h 95 % 0.00 in /  0 mm 0 W/m2
01:07 36.9 °F /  2.7 °C 35.6 °F /  2 °C 29.56 in /  1000.9 hPa NW 1.0 mph /  1.6 km/h 5.0 mph /  8 km/h 95 % 0.00 in /  0 mm 0 W/m2
01:12 36.9 °F /  2.7 °C 35.6 °F /  2 °C 29.57 in /  1001.2 hPa NW 2.0 mph /  3.2 km/h 5.0 mph /  8 km/h 95 % 0.00 in /  0 mm 0 W/m2
01:13 36.9 °F /  2.7 °C 35.6 °F /  2 °C 29.57 in /  1001.2 hPa NW 2.0 mph /  3.2 km/h 5.0 mph /  8 km/h 95 % 0.00 in /  0 mm 0 W/m2
01:18 37.0 °F /  2.8 °C 35.5 °F /  1.9 °C 29.57 in /  1001.2 hPa WNW 2.0 mph /  3.2 km/h 5.0 mph /  8 km/h 94 % 0.00 in /  0 mm 0 W/m2
01:21 37.0 °F /  2.8 °C 35.5 °F /  1.9 °C 29.57 in /  1001.2 hPa WNW 2.0 mph /  3.2 km/h 4.0 mph /  6.4 km/h 94 % 0.00 in /  0 mm 0 W/m2
01:26 37.0 °F /  2.8 °C 35.5 °F /  1.9 °C 29.57 in /  1001.2 hPa Calm   3.0 mph /  4.8 km/h 94 % 0.00 in /  0 mm 0 W/m2
01:31 37.0 °F /  2.8 °C 35.5 °F /  1.9 °C 29.57 in /  1001.2 hPa Calm     94 % 0.00 in /  0 mm 0 W/m2
01:36 37.0 °F /  2.8 °C 35.5 °F /  1.9 °C 29.57 in /  1001.2 hPa WNW 1.0 mph /  1.6 km/h 3.0 mph /  4.8 km/h 94 % 0.00 in /  0 mm 0 W/m2
01:41 37.0 °F /  2.8 °C 35.5 °F /  1.9 °C 29.58 in /  1001.6 hPa Calm   2.0 mph /  3.2 km/h 94 % 0.00 in /  0 mm 0 W/m2
01:42 37.0 °F /  2.8 °C 35.5 °F /  1.9 °C 29.58 in /  1001.6 hPa Calm   2.0 mph /  3.2 km/h 94 % 0.00 in /  0 mm 0 W/m2
01:47 37.0 °F /  2.8 °C 35.5 °F /  1.9 °C 29.58 in /  1001.6 hPa WNW 1.0 mph /  1.6 km/h 2.0 mph /  3.2 km/h 94 % 0.00 in /  0 mm 0 W/m2
01:49 37.0 °F /  2.8 °C 35.5 °F /  1.9 °C 29.58 in /  1001.6 hPa Calm   1.0 mph /  1.6 km/h 94 % 0.00 in /  0 mm 0 W/m2
01:54 37.0 °F /  2.8 °C 35.5 °F /  1.9 °C 29.58 in /  1001.6 hPa Calm     94 % 0.00 in /  0 mm 0 W/m2
01:59 37.0 °F /  2.8 °C 35.5 °F /  1.9 °C 29.58 in /  1001.6 hPa Calm   1.0 mph /  1.6 km/h 94 % 0.00 in /  0 mm 0 W/m2
02:04 37.0 °F /  2.8 °C 35.5 °F /  1.9 °C 29.59 in /  1001.9 hPa Calm   1.0 mph /  1.6 km/h 94 % 0.00 in /  0 mm 0 W/m2
02:09 37.2 °F /  2.9 °C 35.7 °F /  2.1 °C 29.59 in /  1001.9 hPa WNW 3.0 mph /  4.8 km/h 5.0 mph /  8 km/h 94 % 0.00 in /  0 mm 0 W/m2
02:10 37.2 °F /  2.9 °C 35.7 °F /  2.1 °C 29.59 in /  1001.9 hPa WNW 3.0 mph /  4.8 km/h 5.0 mph /  8 km/h 94 % 0.00 in /  0 mm 0 W/m2
02:15 37.2 °F /  2.9 °C 35.7 °F /  2.1 °C 29.59 in /  1001.9 hPa Calm   1.0 mph /  1.6 km/h 94 % 0.00 in /  0 mm 0 W/m2
02:20 37.4 °F /  3 °C 35.8 °F /  2.1 °C 29.59 in /  1001.9 hPa WNW 1.0 mph /  1.6 km/h 3.0 mph /  4.8 km/h 94 % 0.00 in /  0 mm 0 W/m2
02:21 37.4 °F /  3 °C 35.8 °F /  2.1 °C 29.59 in /  1001.9 hPa WNW 1.0 mph /  1.6 km/h 3.0 mph /  4.8 km/h 94 % 0.00 in /  0 mm 0 W/m2
02:26 37.6 °F /  3.1 °C 36.0 °F /  2.2 °C 29.59 in /  1001.9 hPa Calm     94 % 0.00 in /  0 mm 0 W/m2
02:31 37.6 °F /  3.1 °C 36.0 °F /  2.2 °C 29.60 in /  1002.3 hPa Calm     94 % 0.00 in /  0 mm 0 W/m2
02:36 37.6 °F /  3.1 °C 36.0 °F /  2.2 °C 29.60 in /  1002.3 hPa Calm   1.0 mph /  1.6 km/h 94 % 0.00 in /  0 mm 0 W/m2
02:39 37.6 °F /  3.1 °C 36.0 °F /  2.2 °C 29.60 in /  1002.3 hPa Calm   2.0 mph /  3.2 km/h 94 % 0.00 in /  0 mm 0 W/m2
02:45 37.8 °F /  3.2 °C 36.2 °F /  2.3 °C 29.60 in /  1002.3 hPa Calm     94 % 0.00 in /  0 mm 0 W/m2
02:50 37.6 °F /  3.1 °C 36.0 °F /  2.2 °C 29.61 in /  1002.6 hPa Calm     94 % 0.00 in /  0 mm 0 W/m2
02:55 37.6 °F /  3.1 °C 36.0 °F /  2.2 °C 29.60 in /  1002.3 hPa Calm   2.0 mph /  3.2 km/h 94 % 0.00 in /  0 mm 0 W/m2
03:02 37.8 °F /  3.2 °C 36.2 °F /  2.3 °C 29.61 in /  1002.6 hPa Calm   1.0 mph /  1.6 km/h 94 % 0.00 in /  0 mm 0 W/m2
03:04 37.8 °F /  3.2 °C 36.2 °F /  2.3 °C 29.61 in /  1002.6 hPa Calm   1.0 mph /  1.6 km/h 94 % 0.00 in /  0 mm 0 W/m2
03:09 37.9 °F /  3.3 °C 36.4 °F /  2.4 °C 29.61 in /  1002.6 hPa NNW 3.0 mph /  4.8 km/h 6.0 mph /  9.7 km/h 94 % 0.00 in /  0 mm 0 W/m2
03:13 38.1 °F /  3.4 °C 36.5 °F /  2.5 °C 29.62 in /  1002.9 hPa NNW 1.0 mph /  1.6 km/h 2.0 mph /  3.2 km/h 94 % 0.00 in /  0 mm 0 W/m2
03:18 38.3 °F /  3.5 °C 36.7 °F /  2.6 °C 29.61 in /  1002.6 hPa NW 2.0 mph /  3.2 km/h 6.0 mph /  9.7 km/h 94 % 0.00 in /  0 mm 0 W/m2
03:27 38.5 °F /  3.6 °C 37.2 °F /  2.9 °C 29.62 in /  1002.9 hPa NE 1.0 mph /  1.6 km/h 7.0 mph /  11.3 km/h 95 % 0.00 in /  0 mm 0 W/m2
03:31 38.7 °F /  3.7 °C 37.4 °F /  3 °C 29.62 in /  1002.9 hPa NNE 1.0 mph /  1.6 km/h 5.0 mph /  8 km/h 95 % 0.00 in /  0 mm 0 W/m2
03:34 38.7 °F /  3.7 °C 37.4 °F /  3 °C 29.62 in /  1002.9 hPa North 4.0 mph /  6.4 km/h 7.0 mph /  11.3 km/h 95 % 0.00 in /  0 mm 0 W/m2
03:39 38.7 °F /  3.7 °C 37.1 °F /  2.8 °C 29.63 in /  1003.3 hPa North 2.0 mph /  3.2 km/h 6.0 mph /  9.7 km/h 94 % 0.00 in /  0 mm 0 W/m2
03:42 38.7 °F /  3.7 °C 37.1 °F /  2.8 °C 29.63 in /  1003.3 hPa North 1.0 mph /  1.6 km/h 6.0 mph /  9.7 km/h 94 % 0.00 in /  0 mm 0 W/m2
03:47 38.7 °F /  3.7 °C 37.1 °F /  2.8 °C 29.63 in /  1003.3 hPa North 1.0 mph /  1.6 km/h 4.0 mph /  6.4 km/h 94 % 0.00 in /  0 mm 0 W/m2
03:50 38.7 °F /  3.7 °C 37.1 °F /  2.8 °C 29.63 in /  1003.3 hPa North 1.0 mph /  1.6 km/h 7.0 mph /  11.3 km/h 94 % 0.00 in /  0 mm 0 W/m2
03:52 38.7 °F /  3.7 °C 37.1 °F /  2.8 °C 29.63 in /  1003.3 hPa NNW 2.0 mph /  3.2 km/h 7.0 mph /  11.3 km/h 94 % 0.00 in /  0 mm 0 W/m2
03:57 38.7 °F /  3.7 °C 37.1 °F /  2.8 °C 29.63 in /  1003.3 hPa North 3.0 mph /  4.8 km/h 6.0 mph /  9.7 km/h 94 % 0.00 in /  0 mm 0 W/m2
04:00 38.7 °F /  3.7 °C 37.1 °F /  2.8 °C 29.63 in /  1003.3 hPa North 4.0 mph /  6.4 km/h 8.0 mph /  12.9 km/h 94 % 0.00 in /  0 mm 0 W/m2
04:05 38.7 °F /  3.7 °C 37.1 °F /  2.8 °C 29.64 in /  1003.6 hPa North 4.0 mph /  6.4 km/h 7.0 mph /  11.3 km/h 94 % 0.00 in /  0 mm 0 W/m2
04:10 38.7 °F /  3.7 °C 37.4 °F /  3 °C 29.64 in /  1003.6 hPa North 1.0 mph /  1.6 km/h 4.0 mph /  6.4 km/h 95 % 0.00 in /  0 mm 0 W/m2
04:14 38.7 °F /  3.7 °C 37.4 °F /  3 °C 29.64 in /  1003.6 hPa North 4.0 mph /  6.4 km/h 6.0 mph /  9.7 km/h 95 % 0.00 in /  0 mm 0 W/m2
04:19 38.7 °F /  3.7 °C 37.4 °F /  3 °C 29.65 in /  1003.9 hPa NNW 2.0 mph /  3.2 km/h 6.0 mph /  9.7 km/h 95 % 0.00 in /  0 mm 0 W/m2
04:23 38.8 °F /  3.8 °C 37.5 °F /  3.1 °C 29.65 in /  1003.9 hPa NNW 1.0 mph /  1.6 km/h 6.0 mph /  9.7 km/h 95 % 0.00 in /  0 mm 0 W/m2
04:28 38.8 °F /  3.8 °C 37.5 °F /  3.1 °C 29.65 in /  1003.9 hPa North 3.0 mph /  4.8 km/h 8.0 mph /  12.9 km/h 95 % 0.00 in /  0 mm 0 W/m2
04:29 38.8 °F /  3.8 °C 37.5 °F /  3.1 °C 29.65 in /  1003.9 hPa NNW 3.0 mph /  4.8 km/h 8.0 mph /  12.9 km/h 95 % 0.00 in /  0 mm 0 W/m2
04:34 38.8 °F /  3.8 °C 37.5 °F /  3.1 °C 29.65 in /  1003.9 hPa North 2.0 mph /  3.2 km/h 5.0 mph /  8 km/h 95 % 0.00 in /  0 mm 0 W/m2
04:36 38.8 °F /  3.8 °C 37.5 °F /  3.1 °C 29.65 in /  1003.9 hPa North 2.0 mph /  3.2 km/h 5.0 mph /  8 km/h 95 % 0.00 in /  0 mm 0 W/m2
04:41 38.8 °F /  3.8 °C 37.5 °F /  3.1 °C 29.66 in /  1004.3 hPa North 1.0 mph /  1.6 km/h 4.0 mph /  6.4 km/h 95 % 0.00 in /  0 mm 0 W/m2
04:46 38.8 °F /  3.8 °C 37.5 °F /  3.1 °C 29.66 in /  1004.3 hPa NNE 3.0 mph /  4.8 km/h 6.0 mph /  9.7 km/h 95 % 0.00 in /  0 mm 0 W/m2
04:51 39.0 °F /  3.9 °C 37.7 °F /  3.2 °C 29.67 in /  1004.6 hPa North 1.0 mph /  1.6 km/h 7.0 mph /  11.3 km/h 95 % 0.00 in /  0 mm 0 W/m2
04:56 39.0 °F /  3.9 °C 37.7 °F /  3.2 °C 29.67 in /  1004.6 hPa ENE 3.0 mph /  4.8 km/h 6.0 mph /  9.7 km/h 95 % 0.00 in /  0 mm 0 W/m2
04:57 39.0 °F /  3.9 °C 37.7 °F /  3.2 °C 29.67 in /  1004.6 hPa ENE 4.0 mph /  6.4 km/h 7.0 mph /  11.3 km/h 95 % 0.00 in /  0 mm 0 W/m2
05:02 39.0 °F /  3.9 °C 37.7 °F /  3.2 °C 29.67 in /  1004.6 hPa North 7.0 mph /  11.3 km/h 12.0 mph /  19.3 km/h 95 % 0.00 in /  0 mm 0 W/m2
05:04 39.0 °F /  3.9 °C 37.7 °F /  3.2 °C 29.67 in /  1004.6 hPa NNE 6.0 mph /  9.7 km/h 9.0 mph /  14.5 km/h 95 % 0.00 in /  0 mm 0 W/m2
05:09 39.0 °F /  3.9 °C 37.7 °F /  3.2 °C 29.68 in /  1005 hPa NNE 3.0 mph /  4.8 km/h 7.0 mph /  11.3 km/h 95 % 0.00 in /  0 mm 0 W/m2
05:12 39.0 °F /  3.9 °C 37.7 °F /  3.2 °C 29.68 in /  1005 hPa ENE 1.0 mph /  1.6 km/h 5.0 mph /  8 km/h 95 % 0.00 in /  0 mm 0 W/m2
05:13 39.0 °F /  3.9 °C 37.7 °F /  3.2 °C 29.68 in /  1005 hPa Calm   4.0 mph /  6.4 km/h 95 % 0.00 in /  0 mm 0 W/m2
05:19 39.0 °F /  3.9 °C 37.7 °F /  3.2 °C 29.69 in /  1005.3 hPa NE 3.0 mph /  4.8 km/h 7.0 mph /  11.3 km/h 95 % 0.00 in /  0 mm 0 W/m2
05:24 39.0 °F /  3.9 °C 37.7 °F /  3.2 °C 29.69 in /  1005.3 hPa ENE 3.0 mph /  4.8 km/h 8.0 mph /  12.9 km/h 95 % 0.00 in /  0 mm 0 W/m2
05:25 39.0 °F /  3.9 °C 37.7 °F /  3.2 °C 29.69 in /  1005.3 hPa NE 2.0 mph /  3.2 km/h 6.0 mph /  9.7 km/h 95 % 0.00 in /  0 mm 0 W/m2
05:30 39.0 °F /  3.9 °C 37.7 °F /  3.2 °C 29.70 in /  1005.6 hPa NNE 5.0 mph /  8 km/h 9.0 mph /  14.5 km/h 95 % 0.00 in /  0 mm 0 W/m2
05:32 39.0 °F /  3.9 °C 37.7 °F /  3.2 °C 29.69 in /  1005.3 hPa NE 4.0 mph /  6.4 km/h 9.0 mph /  14.5 km/h 95 % 0.00 in /  0 mm 0 W/m2
05:37 39.0 °F /  3.9 °C 37.7 °F /  3.2 °C 29.70 in /  1005.6 hPa North 3.0 mph /  4.8 km/h 7.0 mph /  11.3 km/h 95 % 0.00 in /  0 mm 0 W/m2
05:42 39.0 °F /  3.9 °C 37.7 °F /  3.2 °C 29.70 in /  1005.6 hPa NE 3.0 mph /  4.8 km/h 7.0 mph /  11.3 km/h 95 % 0.00 in /  0 mm 0 W/m2
05:47 39.0 °F /  3.9 °C 37.7 °F /  3.2 °C 29.70 in /  1005.6 hPa NNE 5.0 mph /  8 km/h 8.0 mph /  12.9 km/h 95 % 0.00 in /  0 mm 0 W/m2
05:52 39.0 °F /  3.9 °C 37.7 °F /  3.2 °C 29.71 in /  1006 hPa NNE 7.0 mph /  11.3 km/h 13.0 mph /  20.9 km/h 95 % 0.00 in /  0 mm 0 W/m2
05:58 39.0 °F /  3.9 °C 37.7 °F /  3.2 °C 29.72 in /  1006.3 hPa NE 2.0 mph /  3.2 km/h 6.0 mph /  9.7 km/h 95 % 0.00 in /  0 mm 0 W/m2
06:00 39.0 °F /  3.9 °C 37.7 °F /  3.2 °C 29.72 in /  1006.3 hPa ENE 1.0 mph /  1.6 km/h 5.0 mph /  8 km/h 95 % 0.00 in /  0 mm 0 W/m2
06:05 39.0 °F /  3.9 °C 37.7 °F /  3.2 °C 29.73 in /  1006.7 hPa NE 6.0 mph /  9.7 km/h 10.0 mph /  16.1 km/h 95 % 0.00 in /  0 mm 0 W/m2
06:10 39.0 °F /  3.9 °C 37.7 °F /  3.2 °C 29.73 in /  1006.7 hPa NE 5.0 mph /  8 km/h 12.0 mph /  19.3 km/h 95 % 0.00 in /  0 mm 0 W/m2
06:16 38.8 °F /  3.8 °C 37.5 °F /  3.1 °C 29.73 in /  1006.7 hPa ENE 11.0 mph /  17.7 km/h 18.0 mph /  29 km/h 95 % 0.01 in /  0.25 mm 0 W/m2
06:22 38.3 °F /  3.5 °C 36.7 °F /  2.6 °C 29.73 in /  1006.7 hPa ENE 7.0 mph /  11.3 km/h 14.0 mph /  22.5 km/h 94 % 0.02 in /  0.51 mm 0 W/m2
06:27 38.1 °F /  3.4 °C 36.5 °F /  2.5 °C 29.74 in /  1007 hPa ENE 8.0 mph /  12.9 km/h 16.0 mph /  25.7 km/h 94 % 0.02 in /  0.51 mm 0 W/m2
06:32 38.1 °F /  3.4 °C 36.5 °F /  2.5 °C 29.74 in /  1007 hPa ENE 8.0 mph /  12.9 km/h 14.0 mph /  22.5 km/h 94 % 0.03 in /  0.76 mm 0 W/m2
06:34 38.1 °F /  3.4 °C 36.5 °F /  2.5 °C 29.74 in /  1007 hPa ENE 8.0 mph /  12.9 km/h 14.0 mph /  22.5 km/h 94 % 0.03 in /  0.76 mm 0 W/m2
06:39 38.3 °F /  3.5 °C 36.7 °F /  2.6 °C 29.75 in /  1007.3 hPa ENE 6.0 mph /  9.7 km/h 9.0 mph /  14.5 km/h 94 % 0.03 in /  0.76 mm 0 W/m2
06:45 38.3 °F /  3.5 °C 36.7 °F /  2.6 °C 29.75 in /  1007.3 hPa ENE 4.0 mph /  6.4 km/h 7.0 mph /  11.3 km/h 94 % 0.04 in /  1.02 mm 0 W/m2
06:52 38.3 °F /  3.5 °C 37.0 °F /  2.8 °C 29.75 in /  1007.3 hPa NNE 3.0 mph /  4.8 km/h 5.0 mph /  8 km/h 95 % 0.04 in /  1.02 mm 0 W/m2
06:57 38.3 °F /  3.5 °C 37.0 °F /  2.8 °C 29.76 in /  1007.7 hPa North 1.0 mph /  1.6 km/h 3.0 mph /  4.8 km/h 95 % 0.04 in /  1.02 mm 0 W/m2
07:01 38.3 °F /  3.5 °C 37.0 °F /  2.8 °C 29.76 in /  1007.7 hPa NNE 2.0 mph /  3.2 km/h 7.0 mph /  11.3 km/h 95 % 0.04 in /  1.02 mm 0 W/m2
07:06 38.5 °F /  3.6 °C 37.2 °F /  2.9 °C 29.76 in /  1007.7 hPa NNE 2.0 mph /  3.2 km/h 7.0 mph /  11.3 km/h 95 % 0.04 in /  1.02 mm 0 W/m2
07:12 38.7 °F /  3.7 °C 37.4 °F /  3 °C 29.77 in /  1008 hPa North 4.0 mph /  6.4 km/h 8.0 mph /  12.9 km/h 95 % 0.04 in /  1.02 mm 0 W/m2
07:14 38.7 °F /  3.7 °C 37.4 °F /  3 °C 29.77 in /  1008 hPa North 4.0 mph /  6.4 km/h 7.0 mph /  11.3 km/h 95 % 0.03 in /  0.76 mm 0 W/m2
07:16 38.7 °F /  3.7 °C 37.4 °F /  3 °C 29.77 in /  1008 hPa NNE 3.0 mph /  4.8 km/h 7.0 mph /  11.3 km/h 95 % 0.02 in /  0.51 mm 0 W/m2
07:21 38.7 °F /  3.7 °C 37.4 °F /  3 °C 29.77 in /  1008 hPa NNW 1.0 mph /  1.6 km/h 2.0 mph /  3.2 km/h 95 % 0.02 in /  0.51 mm 0 W/m2
07:26 38.7 °F /  3.7 °C 37.4 °F /  3 °C 29.78 in /  1008.4 hPa North 1.0 mph /  1.6 km/h 6.0 mph /  9.7 km/h 95 % 0.02 in /  0.51 mm 0 W/m2
07:31 38.7 °F /  3.7 °C 37.4 °F /  3 °C 29.78 in /  1008.4 hPa North 5.0 mph /  8 km/h 8.0 mph /  12.9 km/h 95 % 0.01 in /  0.25 mm 0 W/m2
07:36 38.7 °F /  3.7 °C 37.4 °F /  3 °C 29.79 in /  1008.7 hPa NNW 3.0 mph /  4.8 km/h 5.0 mph /  8 km/h 95 % 0.01 in /  0.25 mm 0 W/m2
07:41 38.7 °F /  3.7 °C 37.4 °F /  3 °C 29.79 in /  1008.7 hPa North 4.0 mph /  6.4 km/h 7.0 mph /  11.3 km/h 95 % 0.01 in /  0.25 mm 0 W/m2
07:46 38.5 °F /  3.6 °C 37.2 °F /  2.9 °C 29.80 in /  1009 hPa North 2.0 mph /  3.2 km/h 5.0 mph /  8 km/h 95 % 0.00 in /  0 mm 0 W/m2
07:51 38.5 °F /  3.6 °C 37.2 °F /  2.9 °C 29.80 in /  1009 hPa NNW 2.0 mph /  3.2 km/h 8.0 mph /  12.9 km/h 95 % 0.00 in /  0 mm 0 W/m2
07:56 38.3 °F /  3.5 °C 37.0 °F /  2.8 °C 29.80 in /  1009 hPa North 5.0 mph /  8 km/h 9.0 mph /  14.5 km/h 95 % 0.00 in /  0 mm 0 W/m2
08:01 38.3 °F /  3.5 °C 37.0 °F /  2.8 °C 29.81 in /  1009.4 hPa North 6.0 mph /  9.7 km/h 9.0 mph /  14.5 km/h 95 % 0.00 in /  0 mm 0 W/m2
08:06 38.1 °F /  3.4 °C 36.8 °F /  2.7 °C 29.81 in /  1009.4 hPa NNE 6.0 mph /  9.7 km/h 11.0 mph /  17.7 km/h 95 % 0.00 in /  0 mm 0 W/m2
08:11 38.1 °F /  3.4 °C 36.8 °F /  2.7 °C 29.81 in /  1009.4 hPa NNE 6.0 mph /  9.7 km/h 9.0 mph /  14.5 km/h 95 % 0.00 in /  0 mm 0 W/m2
08:12 38.1 °F /  3.4 °C 36.5 °F /  2.5 °C 29.81 in /  1009.4 hPa NNE 4.0 mph /  6.4 km/h 8.0 mph /  12.9 km/h 94 % 0.00 in /  0 mm 0 W/m2
08:17 37.9 °F /  3.3 °C 36.4 °F /  2.4 °C 29.82 in /  1009.7 hPa NNE 5.0 mph /  8 km/h 9.0 mph /  14.5 km/h 94 % 0.00 in /  0 mm 0 W/m2
08:22 37.9 °F /  3.3 °C 36.4 °F /  2.4 °C 29.82 in /  1009.7 hPa NNE 3.0 mph /  4.8 km/h 9.0 mph /  14.5 km/h 94 % 0.00 in /  0 mm 0 W/m2
08:27 37.9 °F /  3.3 °C 36.4 °F /  2.4 °C 29.83 in /  1010 hPa North 5.0 mph /  8 km/h 9.0 mph /  14.5 km/h 94 % 0.00 in /  0 mm 5 W/m2
08:28 37.9 °F /  3.3 °C 36.4 °F /  2.4 °C 29.83 in /  1010 hPa NNW 4.0 mph /  6.4 km/h 9.0 mph /  14.5 km/h 94 % 0.00 in /  0 mm 5 W/m2
08:33 37.8 °F /  3.2 °C 36.2 °F /  2.3 °C 29.83 in /  1010 hPa NNE 2.0 mph /  3.2 km/h 6.0 mph /  9.7 km/h 94 % 0.00 in /  0 mm 5 W/m2
08:36 37.8 °F /  3.2 °C 36.2 °F /  2.3 °C 29.83 in /  1010 hPa North 4.0 mph /  6.4 km/h 8.0 mph /  12.9 km/h 94 % 0.00 in /  0 mm 5 W/m2
08:41 37.8 °F /  3.2 °C 36.2 °F /  2.3 °C 29.84 in /  1010.4 hPa North 4.0 mph /  6.4 km/h 9.0 mph /  14.5 km/h 94 % 0.00 in /  0 mm 7 W/m2
08:46 37.6 °F /  3.1 °C 36.0 °F /  2.2 °C 29.84 in /  1010.4 hPa NNW 4.0 mph /  6.4 km/h 7.0 mph /  11.3 km/h 94 % 0.00 in /  0 mm 7 W/m2
08:48 37.6 °F /  3.1 °C 36.0 °F /  2.2 °C 29.84 in /  1010.4 hPa NNW 5.0 mph /  8 km/h 8.0 mph /  12.9 km/h 94 % 0.00 in /  0 mm 5 W/m2
08:54 37.6 °F /  3.1 °C 36.0 °F /  2.2 °C 29.85 in /  1010.7 hPa NNW 4.0 mph /  6.4 km/h 8.0 mph /  12.9 km/h 94 % 0.00 in /  0 mm 7 W/m2
08:59 37.6 °F /  3.1 °C 36.0 °F /  2.2 °C 29.85 in /  1010.7 hPa North 5.0 mph /  8 km/h 8.0 mph /  12.9 km/h 94 % 0.00 in /  0 mm 11 W/m2
09:01 37.6 °F /  3.1 °C 36.0 °F /  2.2 °C 29.86 in /  1011.1 hPa North 3.0 mph /  4.8 km/h 7.0 mph /  11.3 km/h 94 % 0.00 in /  0 mm 12 W/m2
09:06 37.4 °F /  3 °C 35.8 °F /  2.1 °C 29.86 in /  1011.1 hPa North 5.0 mph /  8 km/h 9.0 mph /  14.5 km/h 94 % 0.00 in /  0 mm 18 W/m2
09:11 37.4 °F /  3 °C 35.8 °F /  2.1 °C 29.86 in /  1011.1 hPa North 3.0 mph /  4.8 km/h 12.0 mph /  19.3 km/h 94 % 0.00 in /  0 mm 18 W/m2
09:16 37.2 °F /  2.9 °C 35.4 °F /  1.9 °C 29.86 in /  1011.1 hPa North 5.0 mph /  8 km/h 8.0 mph /  12.9 km/h 93 % 0.00 in /  0 mm 23 W/m2
09:21 37.2 °F /  2.9 °C 35.4 °F /  1.9 °C 29.86 in /  1011.1 hPa North 5.0 mph /  8 km/h 10.0 mph /  16.1 km/h 93 % 0.00 in /  0 mm 28 W/m2
09:26 37.2 °F /  2.9 °C 35.4 °F /  1.9 °C 29.87 in /  1011.4 hPa NNE 4.0 mph /  6.4 km/h 9.0 mph /  14.5 km/h 93 % 0.00 in /  0 mm 28 W/m2
09:28 37.2 °F /  2.9 °C 35.4 °F /  1.9 °C 29.87 in /  1011.4 hPa North 5.0 mph /  8 km/h 8.0 mph /  12.9 km/h 93 % 0.00 in /  0 mm 30 W/m2
09:33 37.2 °F /  2.9 °C 35.4 °F /  1.9 °C 29.88 in /  1011.7 hPa North 3.0 mph /  4.8 km/h 7.0 mph /  11.3 km/h 93 % 0.00 in /  0 mm 26 W/m2
09:38 37.2 °F /  2.9 °C 35.4 °F /  1.9 °C 29.88 in /  1011.7 hPa NE 3.0 mph /  4.8 km/h 12.0 mph /  19.3 km/h 93 % 0.00 in /  0 mm 19 W/m2
09:43 37.4 °F /  3 °C 35.6 °F /  2 °C 29.89 in /  1012.1 hPa NNE 2.0 mph /  3.2 km/h 5.0 mph /  8 km/h 93 % 0.00 in /  0 mm 19 W/m2
09:48 37.6 °F /  3.1 °C 35.7 °F /  2.1 °C 29.89 in /  1012.1 hPa ENE 2.0 mph /  3.2 km/h 4.0 mph /  6.4 km/h 93 % 0.00 in /  0 mm 23 W/m2
09:54 37.6 °F /  3.1 °C 35.7 °F /  2.1 °C 29.89 in /  1012.1 hPa NE 4.0 mph /  6.4 km/h 11.0 mph /  17.7 km/h 93 % 0.00 in /  0 mm 32 W/m2
09:59 37.8 °F /  3.2 °C 35.9 °F /  2.2 °C 29.90 in /  1012.4 hPa NE 3.0 mph /  4.8 km/h 8.0 mph /  12.9 km/h 93 % 0.00 in /  0 mm 35 W/m2
10:04 37.9 °F /  3.3 °C 36.1 °F /  2.3 °C 29.90 in /  1012.4 hPa NNE 3.0 mph /  4.8 km/h 6.0 mph /  9.7 km/h 93 % 0.00 in /  0 mm 74 W/m2
10:09 38.1 °F /  3.4 °C 36.3 °F /  2.4 °C 29.90 in /  1012.4 hPa North 5.0 mph /  8 km/h 13.0 mph /  20.9 km/h 93 % 0.00 in /  0 mm 42 W/m2
10:12 38.1 °F /  3.4 °C 36.3 °F /  2.4 °C 29.91 in /  1012.8 hPa NNE 4.0 mph /  6.4 km/h 10.0 mph /  16.1 km/h 93 % 0.00 in /  0 mm 40 W/m2
10:17 38.3 °F /  3.5 °C 36.5 °F /  2.5 °C 29.91 in /  1012.8 hPa NNE 8.0 mph /  12.9 km/h 14.0 mph /  22.5 km/h 93 % 0.00 in /  0 mm 86 W/m2
10:22 38.5 °F /  3.6 °C 36.6 °F /  2.6 °C 29.92 in /  1013.1 hPa North 4.0 mph /  6.4 km/h 10.0 mph /  16.1 km/h 93 % 0.00 in /  0 mm 74 W/m2
10:27 38.5 °F /  3.6 °C 36.6 °F /  2.6 °C 29.92 in /  1013.1 hPa NE 6.0 mph /  9.7 km/h 13.0 mph /  20.9 km/h 93 % 0.00 in /  0 mm 56 W/m2
10:32 38.7 °F /  3.7 °C 36.8 °F /  2.7 °C 29.92 in /  1013.1 hPa NNE 2.0 mph /  3.2 km/h 7.0 mph /  11.3 km/h 93 % 0.00 in /  0 mm 40 W/m2
10:34 38.7 °F /  3.7 °C 36.8 °F /  2.7 °C 29.92 in /  1013.1 hPa NE 6.0 mph /  9.7 km/h 15.0 mph /  24.1 km/h 93 % 0.00 in /  0 mm 46 W/m2
10:39 38.7 °F /  3.7 °C 36.8 °F /  2.7 °C 29.92 in /  1013.1 hPa NE 4.0 mph /  6.4 km/h 11.0 mph /  17.7 km/h 93 % 0.00 in /  0 mm 79 W/m2
10:44 38.7 °F /  3.7 °C 36.8 °F /  2.7 °C 29.93 in /  1013.4 hPa NE 6.0 mph /  9.7 km/h 10.0 mph /  16.1 km/h 93 % 0.00 in /  0 mm 58 W/m2
10:49 38.8 °F /  3.8 °C 37.0 °F /  2.8 °C 29.93 in /  1013.4 hPa NE 7.0 mph /  11.3 km/h 14.0 mph /  22.5 km/h 93 % 0.00 in /  0 mm 83 W/m2
10:54 39.0 °F /  3.9 °C 37.2 °F /  2.9 °C 29.93 in /  1013.4 hPa NE 4.0 mph /  6.4 km/h 10.0 mph /  16.1 km/h 93 % 0.00 in /  0 mm 83 W/m2
10:59 39.2 °F /  4 °C 37.1 °F /  2.8 °C 29.93 in /  1013.4 hPa NE 3.0 mph /  4.8 km/h 9.0 mph /  14.5 km/h 92 % 0.00 in /  0 mm 74 W/m2
11:00 39.2 °F /  4 °C 37.3 °F /  2.9 °C 29.93 in /  1013.4 hPa ENE 4.0 mph /  6.4 km/h 9.0 mph /  14.5 km/h 93 % 0.00 in /  0 mm 76 W/m2
11:05 39.4 °F /  4.1 °C 37.2 °F /  2.9 °C 29.94 in /  1013.8 hPa ENE 8.0 mph /  12.9 km/h 16.0 mph /  25.7 km/h 92 % 0.00 in /  0 mm 56 W/m2
11:10 39.4 °F /  4.1 °C 37.2 °F /  2.9 °C 29.94 in /  1013.8 hPa ENE 12.0 mph /  19.3 km/h 22.0 mph /  35.4 km/h 92 % 0.00 in /  0 mm 62 W/m2
11:15 39.4 °F /  4.1 °C 37.0 °F /  2.8 °C 29.93 in /  1013.4 hPa ENE 6.0 mph /  9.7 km/h 13.0 mph /  20.9 km/h 91 % 0.00 in /  0 mm 65 W/m2
11:20 39.4 °F /  4.1 °C 37.0 °F /  2.8 °C 29.94 in /  1013.8 hPa NE 10.0 mph /  16.1 km/h 16.0 mph /  25.7 km/h 91 % 0.00 in /  0 mm 70 W/m2
11:26 39.6 °F /  4.2 °C 36.9 °F /  2.7 °C 29.94 in /  1013.8 hPa NE 7.0 mph /  11.3 km/h 12.0 mph /  19.3 km/h 90 % 0.00 in /  0 mm 98 W/m2
11:31 39.7 °F /  4.3 °C 37.0 °F /  2.8 °C 29.94 in /  1013.8 hPa ENE 1.0 mph /  1.6 km/h 8.0 mph /  12.9 km/h 90 % 0.00 in /  0 mm 183 W/m2
11:36 40.1 °F /  4.5 °C 37.4 °F /  3 °C 29.94 in /  1013.8 hPa North 7.0 mph /  11.3 km/h 13.0 mph /  20.9 km/h 90 % 0.00 in /  0 mm 267 W/m2
11:40 40.3 °F /  4.6 °C 37.6 °F /  3.1 °C 29.95 in /  1014.1 hPa NNE 7.0 mph /  11.3 km/h 11.0 mph /  17.7 km/h 90 % 0.00 in /  0 mm 262 W/m2
11:45 40.5 °F /  4.7 °C 37.8 °F /  3.2 °C 29.95 in /  1014.1 hPa North 5.0 mph /  8 km/h 11.0 mph /  17.7 km/h 90 % 0.00 in /  0 mm 120 W/m2
11:50 40.6 °F /  4.8 °C 37.7 °F /  3.2 °C 29.95 in /  1014.1 hPa NNE 5.0 mph /  8 km/h 11.0 mph /  17.7 km/h 89 % 0.00 in /  0 mm 90 W/m2
11:55 40.6 °F /  4.8 °C 37.7 °F /  3.2 °C 29.95 in /  1014.1 hPa NNE 7.0 mph /  11.3 km/h 13.0 mph /  20.9 km/h 89 % 0.00 in /  0 mm 81 W/m2
12:00 40.6 °F /  4.8 °C 37.7 °F /  3.2 °C 29.96 in /  1014.4 hPa NNE 4.0 mph /  6.4 km/h 10.0 mph /  16.1 km/h 89 % 0.00 in /  0 mm 160 W/m2
12:05 40.5 °F /  4.7 °C 37.5 °F /  3.1 °C 29.96 in /  1014.4 hPa NNE 4.0 mph /  6.4 km/h 9.0 mph /  14.5 km/h 89 % 0.00 in /  0 mm 72 W/m2
12:10 40.6 °F /  4.8 °C 37.7 °F /  3.2 °C 29.96 in /  1014.4 hPa North 2.0 mph /  3.2 km/h 7.0 mph /  11.3 km/h 89 % 0.00 in /  0 mm 98 W/m2
12:11 40.6 °F /  4.8 °C 37.7 °F /  3.2 °C 29.96 in /  1014.4 hPa North 3.0 mph /  4.8 km/h 7.0 mph /  11.3 km/h 89 % 0.00 in /  0 mm 98 W/m2
12:16 40.6 °F /  4.8 °C 37.7 °F /  3.2 °C 29.97 in /  1014.8 hPa North 3.0 mph /  4.8 km/h 7.0 mph /  11.3 km/h 89 % 0.00 in /  0 mm 62 W/m2
12:17 40.5 °F /  4.7 °C 37.5 °F /  3.1 °C 29.97 in /  1014.8 hPa North 3.0 mph /  4.8 km/h 9.0 mph /  14.5 km/h 89 % 0.00 in /  0 mm 62 W/m2
12:22 40.5 °F /  4.7 °C 37.5 °F /  3.1 °C 29.97 in /  1014.8 hPa North 3.0 mph /  4.8 km/h 8.0 mph /  12.9 km/h 89 % 0.00 in /  0 mm 54 W/m2
12:24 40.5 °F /  4.7 °C 37.5 °F /  3.1 °C 29.97 in /  1014.8 hPa NNE 2.0 mph /  3.2 km/h 8.0 mph /  12.9 km/h 89 % 0.00 in /  0 mm 65 W/m2
12:29 40.5 °F /  4.7 °C 37.5 °F /  3.1 °C 29.97 in /  1014.8 hPa North 3.0 mph /  4.8 km/h 10.0 mph /  16.1 km/h 89 % 0.00 in /  0 mm 116 W/m2
12:34 40.5 °F /  4.7 °C 37.5 °F /  3.1 °C 29.97 in /  1014.8 hPa NE 2.0 mph /  3.2 km/h 7.0 mph /  11.3 km/h 89 % 0.00 in /  0 mm 107 W/m2
12:40 40.5 °F /  4.7 °C 37.2 °F /  2.9 °C 29.97 in /  1014.8 hPa NE 5.0 mph /  8 km/h 11.0 mph /  17.7 km/h 88 % 0.00 in /  0 mm 98 W/m2
12:45 40.5 °F /  4.7 °C 36.9 °F /  2.7 °C 29.98 in /  1015.1 hPa ENE 2.0 mph /  3.2 km/h 7.0 mph /  11.3 km/h 87 % 0.00 in /  0 mm 95 W/m2
12:50 40.5 °F /  4.7 °C 36.6 °F /  2.6 °C 29.98 in /  1015.1 hPa NE 6.0 mph /  9.7 km/h 11.0 mph /  17.7 km/h 86 % 0.00 in /  0 mm 211 W/m2
12:55 40.8 °F /  4.9 °C 37.0 °F /  2.8 °C 29.98 in /  1015.1 hPa NE 7.0 mph /  11.3 km/h 11.0 mph /  17.7 km/h 86 % 0.00 in /  0 mm 204 W/m2
13:01 41.0 °F /  5 °C 36.8 °F /  2.7 °C 29.98 in /  1015.1 hPa NE 5.0 mph /  8 km/h 11.0 mph /  17.7 km/h 85 % 0.00 in /  0 mm 200 W/m2
13:02 41.0 °F /  5 °C 36.5 °F /  2.5 °C 29.98 in /  1015.1 hPa NE 6.0 mph /  9.7 km/h 11.0 mph /  17.7 km/h 84 % 0.00 in /  0 mm 221 W/m2
13:07 41.4 °F /  5.2 °C 36.9 °F /  2.7 °C 29.98 in /  1015.1 hPa NE 3.0 mph /  4.8 km/h 7.0 mph /  11.3 km/h 84 % 0.00 in /  0 mm 211 W/m2
13:12 41.5 °F /  5.3 °C 36.8 °F /  2.7 °C 29.98 in /  1015.1 hPa NNE 8.0 mph /  12.9 km/h 15.0 mph /  24.1 km/h 83 % 0.00 in /  0 mm 105 W/m2
13:17 41.7 °F /  5.4 °C 36.9 °F /  2.7 °C 29.98 in /  1015.1 hPa NNE 6.0 mph /  9.7 km/h 10.0 mph /  16.1 km/h 83 % 0.00 in /  0 mm 204 W/m2
13:21 41.7 °F /  5.4 °C 36.9 °F /  2.7 °C 29.99 in /  1015.5 hPa NNE 7.0 mph /  11.3 km/h 13.0 mph /  20.9 km/h 83 % 0.00 in /  0 mm 204 W/m2
13:27 42.1 °F /  5.6 °C 37.0 °F /  2.8 °C 29.99 in /  1015.5 hPa NE 6.0 mph /  9.7 km/h 11.0 mph /  17.7 km/h 82 % 0.00 in /  0 mm 192 W/m2
13:29 42.1 °F /  5.6 °C 37.0 °F /  2.8 °C 29.99 in /  1015.5 hPa NNE 5.0 mph /  8 km/h 11.0 mph /  17.7 km/h 82 % 0.00 in /  0 mm 192 W/m2
13:34 42.3 °F /  5.7 °C 36.8 °F /  2.7 °C 29.99 in /  1015.5 hPa NE 7.0 mph /  11.3 km/h 13.0 mph /  20.9 km/h 81 % 0.00 in /  0 mm 192 W/m2
13:39 42.4 °F /  5.8 °C 36.7 °F /  2.6 °C 29.99 in /  1015.5 hPa NE 7.0 mph /  11.3 km/h 12.0 mph /  19.3 km/h 80 % 0.00 in /  0 mm 185 W/m2
13:45 42.4 °F /  5.8 °C 36.4 °F /  2.4 °C 30.00 in /  1015.8 hPa NE 6.0 mph /  9.7 km/h 15.0 mph /  24.1 km/h 79 % 0.00 in /  0 mm 183 W/m2
13:48 42.4 °F /  5.8 °C 36.4 °F /  2.4 °C 29.99 in /  1015.5 hPa NE 7.0 mph /  11.3 km/h 12.0 mph /  19.3 km/h 79 % 0.00 in /  0 mm 174 W/m2
13:54 42.4 °F /  5.8 °C 35.7 °F /  2.1 °C 30.00 in /  1015.8 hPa NE 11.0 mph /  17.7 km/h 19.0 mph /  30.6 km/h 77 % 0.00 in /  0 mm 186 W/m2
13:57 42.6 °F /  5.9 °C 35.9 °F /  2.2 °C 30.00 in /  1015.8 hPa NE 9.0 mph /  14.5 km/h 15.0 mph /  24.1 km/h 77 % 0.00 in /  0 mm 102 W/m2
14:03 42.6 °F /  5.9 °C 35.9 °F /  2.2 °C 30.00 in /  1015.8 hPa NE 8.0 mph /  12.9 km/h 15.0 mph /  24.1 km/h 77 % 0.00 in /  0 mm 181 W/m2
14:05 42.6 °F /  5.9 °C 35.9 °F /  2.2 °C 30.00 in /  1015.8 hPa NE 9.0 mph /  14.5 km/h 18.0 mph /  29 km/h 77 % 0.00 in /  0 mm 185 W/m2
14:10 42.4 °F /  5.8 °C 35.4 °F /  1.9 °C 30.01 in /  1016.1 hPa NE 9.0 mph /  14.5 km/h 16.0 mph /  25.7 km/h 76 % 0.00 in /  0 mm 88 W/m2
14:15 42.3 °F /  5.7 °C 35.2 °F /  1.8 °C 30.01 in /  1016.1 hPa NE 9.0 mph /  14.5 km/h 15.0 mph /  24.1 km/h 76 % 0.00 in /  0 mm 104 W/m2
14:18 42.1 °F /  5.6 °C 35.1 °F /  1.7 °C 30.01 in /  1016.1 hPa NE 9.0 mph /  14.5 km/h 16.0 mph /  25.7 km/h 76 % 0.00 in /  0 mm 142 W/m2
14:24 42.1 °F /  5.6 °C 35.4 °F /  1.9 °C 30.01 in /  1016.1 hPa NE 8.0 mph /  12.9 km/h 18.0 mph /  29 km/h 77 % 0.00 in /  0 mm 132 W/m2
14:29 42.1 °F /  5.6 °C 35.4 °F /  1.9 °C 30.02 in /  1016.5 hPa NE 7.0 mph /  11.3 km/h 14.0 mph /  22.5 km/h 77 % 0.00 in /  0 mm 120 W/m2
14:34 42.1 °F /  5.6 °C 35.4 °F /  1.9 °C 30.02 in /  1016.5 hPa NE 6.0 mph /  9.7 km/h 14.0 mph /  22.5 km/h 77 % 0.00 in /  0 mm 98 W/m2
14:39 41.9 °F /  5.5 °C 35.5 °F /  1.9 °C 30.02 in /  1016.5 hPa NE 2.0 mph /  3.2 km/h 9.0 mph /  14.5 km/h 78 % 0.00 in /  0 mm 54 W/m2
14:44 41.7 °F /  5.4 °C 35.4 °F /  1.9 °C 30.03 in /  1016.8 hPa NNE 2.0 mph /  3.2 km/h 6.0 mph /  9.7 km/h 78 % 0.00 in /  0 mm 47 W/m2
14:45 41.9 °F /  5.5 °C 35.5 °F /  1.9 °C 30.03 in /  1016.8 hPa NNE 2.0 mph /  3.2 km/h 6.0 mph /  9.7 km/h 78 % 0.00 in /  0 mm 49 W/m2
14:50 41.7 °F /  5.4 °C 35.4 °F /  1.9 °C 30.03 in /  1016.8 hPa North 7.0 mph /  11.3 km/h 11.0 mph /  17.7 km/h 78 % 0.00 in /  0 mm 54 W/m2
14:55 41.7 °F /  5.4 °C 35.7 °F /  2.1 °C 30.04 in /  1017.2 hPa NNE 6.0 mph /  9.7 km/h 16.0 mph /  25.7 km/h 79 % 0.00 in /  0 mm 16 W/m2
15:00 41.5 °F /  5.3 °C 35.8 °F /  2.1 °C 30.04 in /  1017.2 hPa NE 7.0 mph /  11.3 km/h 16.0 mph /  25.7 km/h 80 % 0.00 in /  0 mm 21 W/m2
15:01 41.4 °F /  5.2 °C 35.7 °F /  2.1 °C 30.04 in /  1017.2 hPa NE 10.0 mph /  16.1 km/h 16.0 mph /  25.7 km/h 80 % 0.00 in /  0 mm 26 W/m2
15:06 40.8 °F /  4.9 °C 35.1 °F /  1.7 °C 30.04 in /  1017.2 hPa NE 9.0 mph /  14.5 km/h 15.0 mph /  24.1 km/h 80 % 0.00 in /  0 mm 32 W/m2
15:11 40.5 °F /  4.7 °C 35.4 °F /  1.9 °C 30.05 in /  1017.5 hPa NE 6.0 mph /  9.7 km/h 10.0 mph /  16.1 km/h 82 % 0.00 in /  0 mm 30 W/m2
15:16 40.3 °F /  4.6 °C 35.2 °F /  1.8 °C 30.05 in /  1017.5 hPa NNE 4.0 mph /  6.4 km/h 8.0 mph /  12.9 km/h 82 % 0.00 in /  0 mm 19 W/m2
15:17 40.3 °F /  4.6 °C 35.2 °F /  1.8 °C 30.06 in /  1017.8 hPa NNE 3.0 mph /  4.8 km/h 8.0 mph /  12.9 km/h 82 % 0.00 in /  0 mm 19 W/m2
15:20 40.1 °F /  4.5 °C 35.0 °F /  1.7 °C 30.06 in /  1017.8 hPa NE 3.0 mph /  4.8 km/h 7.0 mph /  11.3 km/h 82 % 0.00 in /  0 mm 18 W/m2
15:25 39.7 °F /  4.3 °C 35.0 °F /  1.7 °C 30.06 in /  1017.8 hPa NNE 3.0 mph /  4.8 km/h 9.0 mph /  14.5 km/h 83 % 0.00 in /  0 mm 18 W/m2
15:30 39.6 °F /  4.2 °C 34.8 °F /  1.6 °C 30.06 in /  1017.8 hPa ENE 2.0 mph /  3.2 km/h 7.0 mph /  11.3 km/h 83 % 0.00 in /  0 mm 16 W/m2
15:35 39.6 °F /  4.2 °C 34.8 °F /  1.6 °C 30.06 in /  1017.8 hPa NE 2.0 mph /  3.2 km/h 6.0 mph /  9.7 km/h 83 % 0.00 in /  0 mm 14 W/m2
15:41 39.4 °F /  4.1 °C 34.6 °F /  1.4 °C 30.07 in /  1018.2 hPa ENE 2.0 mph /  3.2 km/h 6.0 mph /  9.7 km/h 83 % 0.00 in /  0 mm 12 W/m2
15:46 39.0 °F /  3.9 °C 34.3 °F /  1.3 °C 30.07 in /  1018.2 hPa NE 1.0 mph /  1.6 km/h 6.0 mph /  9.7 km/h 83 % 0.00 in /  0 mm 11 W/m2
15:51 39.0 °F /  3.9 °C 34.6 °F /  1.4 °C 30.07 in /  1018.2 hPa Calm   2.0 mph /  3.2 km/h 84 % 0.00 in /  0 mm 9 W/m2
15:56 38.8 °F /  3.8 °C 34.4 °F /  1.3 °C 30.07 in /  1018.2 hPa NNE 1.0 mph /  1.6 km/h 6.0 mph /  9.7 km/h 84 % 0.00 in /  0 mm 7 W/m2
16:01 38.7 °F /  3.7 °C 34.2 °F /  1.2 °C 30.07 in /  1018.2 hPa NNE 1.0 mph /  1.6 km/h 5.0 mph /  8 km/h 84 % 0.00 in /  0 mm 7 W/m2
16:06 38.7 °F /  3.7 °C 34.2 °F /  1.2 °C 30.07 in /  1018.2 hPa NE 1.0 mph /  1.6 km/h 5.0 mph /  8 km/h 84 % 0.00 in /  0 mm 5 W/m2
16:11 38.7 °F /  3.7 °C 34.5 °F /  1.4 °C 30.08 in /  1018.5 hPa NNW 2.0 mph /  3.2 km/h 5.0 mph /  8 km/h 85 % 0.00 in /  0 mm 0 W/m2
16:13 38.5 °F /  3.6 °C 34.4 °F /  1.3 °C 30.08 in /  1018.5 hPa North 1.0 mph /  1.6 km/h 5.0 mph /  8 km/h 85 % 0.00 in /  0 mm 0 W/m2
16:18 38.5 °F /  3.6 °C 34.4 °F /  1.3 °C 30.08 in /  1018.5 hPa NE 1.0 mph /  1.6 km/h 5.0 mph /  8 km/h 85 % 0.00 in /  0 mm 0 W/m2
16:19 38.5 °F /  3.6 °C 34.4 °F /  1.3 °C 30.08 in /  1018.5 hPa NNE 2.0 mph /  3.2 km/h 11.0 mph /  17.7 km/h 85 % 0.00 in /  0 mm 0 W/m2
16:24 38.3 °F /  3.5 °C 34.5 °F /  1.4 °C 30.08 in /  1018.5 hPa North 2.0 mph /  3.2 km/h 5.0 mph /  8 km/h 86 % 0.00 in /  0 mm 0 W/m2
16:28 38.3 °F /  3.5 °C 34.5 °F /  1.4 °C 30.08 in /  1018.5 hPa Calm   2.0 mph /  3.2 km/h 86 % 0.00 in /  0 mm 0 W/m2
16:33 38.1 °F /  3.4 °C 34.3 °F /  1.3 °C 30.09 in /  1018.8 hPa NNE 1.0 mph /  1.6 km/h 5.0 mph /  8 km/h 86 % 0.00 in /  0 mm 0 W/m2
16:38 38.1 °F /  3.4 °C 34.3 °F /  1.3 °C 30.09 in /  1018.8 hPa North 3.0 mph /  4.8 km/h 8.0 mph /  12.9 km/h 86 % 0.00 in /  0 mm 0 W/m2
16:43 38.1 °F /  3.4 °C 34.3 °F /  1.3 °C 30.09 in /  1018.8 hPa North 5.0 mph /  8 km/h 9.0 mph /  14.5 km/h 86 % 0.00 in /  0 mm 0 W/m2
16:45 38.1 °F /  3.4 °C 34.3 °F /  1.3 °C 30.09 in /  1018.8 hPa NNE 4.0 mph /  6.4 km/h 9.0 mph /  14.5 km/h 86 % 0.00 in /  0 mm 0 W/m2
16:50 38.1 °F /  3.4 °C 34.3 °F /  1.3 °C 30.09 in /  1018.8 hPa NE 2.0 mph /  3.2 km/h 7.0 mph /  11.3 km/h 86 % 0.00 in /  0 mm 0 W/m2
16:55 37.9 °F /  3.3 °C 34.1 °F /  1.2 °C 30.10 in /  1019.2 hPa North 1.0 mph /  1.6 km/h 5.0 mph /  8 km/h 86 % 0.00 in /  0 mm 0 W/m2
17:00 37.9 °F /  3.3 °C 34.1 °F /  1.2 °C 30.10 in /  1019.2 hPa NNE 6.0 mph /  9.7 km/h 8.0 mph /  12.9 km/h 86 % 0.00 in /  0 mm 0 W/m2
17:05 37.9 °F /  3.3 °C 34.1 °F /  1.2 °C 30.10 in /  1019.2 hPa North 4.0 mph /  6.4 km/h 8.0 mph /  12.9 km/h 86 % 0.00 in /  0 mm 0 W/m2
17:11 37.8 °F /  3.2 °C 33.9 °F /  1.1 °C 30.11 in /  1019.5 hPa North 2.0 mph /  3.2 km/h 6.0 mph /  9.7 km/h 86 % 0.00 in /  0 mm 0 W/m2
17:13 37.8 °F /  3.2 °C 33.9 °F /  1.1 °C 30.11 in /  1019.5 hPa North 3.0 mph /  4.8 km/h 7.0 mph /  11.3 km/h 86 % 0.00 in /  0 mm 0 W/m2
17:14 37.8 °F /  3.2 °C 33.9 °F /  1.1 °C 30.11 in /  1019.5 hPa North 4.0 mph /  6.4 km/h 8.0 mph /  12.9 km/h 86 % 0.00 in /  0 mm 0 W/m2
17:19 37.6 °F /  3.1 °C 33.8 °F /  1 °C 30.11 in /  1019.5 hPa North 1.0 mph /  1.6 km/h 5.0 mph /  8 km/h 86 % 0.00 in /  0 mm 0 W/m2
17:24 37.6 °F /  3.1 °C 34.1 °F /  1.2 °C 30.12 in /  1019.9 hPa North 3.0 mph /  4.8 km/h 9.0 mph /  14.5 km/h 87 % 0.00 in /  0 mm 0 W/m2
17:29 37.6 °F /  3.1 °C 34.1 °F /  1.2 °C 30.12 in /  1019.9 hPa North 3.0 mph /  4.8 km/h 7.0 mph /  11.3 km/h 87 % 0.00 in /  0 mm 0 W/m2
17:33 37.6 °F /  3.1 °C 34.1 °F /  1.2 °C 30.12 in /  1019.9 hPa North 1.0 mph /  1.6 km/h 6.0 mph /  9.7 km/h 87 % 0.00 in /  0 mm 0 W/m2
17:38 37.4 °F /  3 °C 33.9 °F /  1.1 °C 30.13 in /  1020.2 hPa NNW 4.0 mph /  6.4 km/h 7.0 mph /  11.3 km/h 87 % 0.00 in /  0 mm 0 W/m2
17:40 37.2 °F /  2.9 °C 33.7 °F /  0.9 °C 30.13 in /  1020.2 hPa NNW 3.0 mph /  4.8 km/h 7.0 mph /  11.3 km/h 87 % 0.00 in /  0 mm 0 W/m2
17:45 37.0 °F /  2.8 °C 33.5 °F /  0.8 °C 30.13 in /  1020.2 hPa NNW 2.0 mph /  3.2 km/h 7.0 mph /  11.3 km/h 87 % 0.00 in /  0 mm 0 W/m2
17:46 37.0 °F /  2.8 °C 33.5 °F /  0.8 °C 30.13 in /  1020.2 hPa NNW 2.0 mph /  3.2 km/h 7.0 mph /  11.3 km/h 87 % 0.00 in /  0 mm 0 W/m2
17:49 37.0 °F /  2.8 °C 33.5 °F /  0.8 °C 30.14 in /  1020.5 hPa NNW 5.0 mph /  8 km/h 11.0 mph /  17.7 km/h 87 % 0.00 in /  0 mm 0 W/m2
17:51 37.0 °F /  2.8 °C 33.5 °F /  0.8 °C 30.14 in /  1020.5 hPa NNW 5.0 mph /  8 km/h 11.0 mph /  17.7 km/h 87 % 0.00 in /  0 mm 0 W/m2
18:01 36.9 °F /  2.7 °C 33.4 °F /  0.8 °C 30.15 in /  1020.9 hPa North 3.0 mph /  4.8 km/h 6.0 mph /  9.7 km/h 87 % 0.00 in /  0 mm 0 W/m2
18:04 36.9 °F /  2.7 °C 33.6 °F /  0.9 °C 30.15 in /  1020.9 hPa North 4.0 mph /  6.4 km/h 8.0 mph /  12.9 km/h 88 % 0.00 in /  0 mm 0 W/m2
18:09 36.7 °F /  2.6 °C 33.5 °F /  0.8 °C 30.15 in /  1020.9 hPa North 4.0 mph /  6.4 km/h 8.0 mph /  12.9 km/h 88 % 0.00 in /  0 mm 0 W/m2
18:15 36.7 °F /  2.6 °C 33.5 °F /  0.8 °C 30.15 in /  1020.9 hPa North 5.0 mph /  8 km/h 10.0 mph /  16.1 km/h 88 % 0.00 in /  0 mm 0 W/m2
18:19 36.7 °F /  2.6 °C 33.5 °F /  0.8 °C 30.16 in /  1021.2 hPa North 5.0 mph /  8 km/h 8.0 mph /  12.9 km/h 88 % 0.00 in /  0 mm 0 W/m2
18:24 36.7 °F /  2.6 °C 33.5 °F /  0.8 °C 30.16 in /  1021.2 hPa North 5.0 mph /  8 km/h 9.0 mph /  14.5 km/h 88 % 0.00 in /  0 mm 0 W/m2
18:29 36.5 °F /  2.5 °C 33.3 °F /  0.7 °C 30.16 in /  1021.2 hPa NNW 4.0 mph /  6.4 km/h 7.0 mph /  11.3 km/h 88 % 0.00 in /  0 mm 0 W/m2
18:34 36.3 °F /  2.4 °C 33.1 °F /  0.6 °C 30.17 in /  1021.6 hPa NNW 5.0 mph /  8 km/h 8.0 mph /  12.9 km/h 88 % 0.00 in /  0 mm 0 W/m2
18:39 36.1 °F /  2.3 °C 32.9 °F /  0.5 °C 30.17 in /  1021.6 hPa North 5.0 mph /  8 km/h 8.0 mph /  12.9 km/h 88 % 0.00 in /  0 mm 0 W/m2
18:43 36.1 °F /  2.3 °C 32.9 °F /  0.5 °C 30.17 in /  1021.6 hPa North 6.0 mph /  9.7 km/h 10.0 mph /  16.1 km/h 88 % 0.00 in /  0 mm 0 W/m2
18:48 36.1 °F /  2.3 °C 32.9 °F /  0.5 °C 30.18 in /  1021.9 hPa North 3.0 mph /  4.8 km/h 9.0 mph /  14.5 km/h 88 % 0.00 in /  0 mm 0 W/m2
18:54 36.3 °F /  2.4 °C 33.1 °F /  0.6 °C 30.18 in /  1021.9 hPa NNE 2.0 mph /  3.2 km/h 6.0 mph /  9.7 km/h 88 % 0.00 in /  0 mm 0 W/m2
18:59 36.1 °F /  2.3 °C 32.9 °F /  0.5 °C 30.18 in /  1021.9 hPa North 2.0 mph /  3.2 km/h 7.0 mph /  11.3 km/h 88 % 0.00 in /  0 mm 0 W/m2
19:01 36.1 °F /  2.3 °C 32.9 °F /  0.5 °C 30.19 in /  1022.2 hPa NNE 1.0 mph /  1.6 km/h 5.0 mph /  8 km/h 88 % 0.00 in /  0 mm 0 W/m2
19:06 36.1 °F /  2.3 °C 32.9 °F /  0.5 °C 30.19 in /  1022.2 hPa North 3.0 mph /  4.8 km/h 6.0 mph /  9.7 km/h 88 % 0.00 in /  0 mm 0 W/m2
19:08 36.1 °F /  2.3 °C 32.9 °F /  0.5 °C 30.19 in /  1022.2 hPa NNE 3.0 mph /  4.8 km/h 8.0 mph /  12.9 km/h 88 % 0.00 in /  0 mm 0 W/m2
19:13 36.1 °F /  2.3 °C 32.9 °F /  0.5 °C 30.19 in /  1022.2 hPa North 4.0 mph /  6.4 km/h 9.0 mph /  14.5 km/h 88 % 0.00 in /  0 mm 0 W/m2
19:18 36.1 °F /  2.3 °C 32.9 °F /  0.5 °C 30.18 in /  1021.9 hPa North 4.0 mph /  6.4 km/h 7.0 mph /  11.3 km/h 88 % 0.00 in /  0 mm 0 W/m2
19:23 36.1 °F /  2.3 °C 32.9 °F /  0.5 °C 30.19 in /  1022.2 hPa NNE 5.0 mph /  8 km/h 7.0 mph /  11.3 km/h 88 % 0.00 in /  0 mm 0 W/m2
19:26 36.1 °F /  2.3 °C 32.9 °F /  0.5 °C 30.19 in /  1022.2 hPa North 3.0 mph /  4.8 km/h 7.0 mph /  11.3 km/h 88 % 0.00 in /  0 mm 0 W/m2
19:31 36.0 °F /  2.2 °C 32.8 °F /  0.4 °C 30.19 in /  1022.2 hPa North 5.0 mph /  8 km/h 11.0 mph /  17.7 km/h 88 % 0.00 in /  0 mm 0 W/m2
19:36 36.0 °F /  2.2 °C 32.8 °F /  0.4 °C 30.19 in /  1022.2 hPa North 5.0 mph /  8 km/h 9.0 mph /  14.5 km/h 88 % 0.00 in /  0 mm 0 W/m2
19:41 36.0 °F /  2.2 °C 32.8 °F /  0.4 °C 30.20 in /  1022.6 hPa NNW 3.0 mph /  4.8 km/h 6.0 mph /  9.7 km/h 88 % 0.00 in /  0 mm 0 W/m2
19:42 36.0 °F /  2.2 °C 32.8 °F /  0.4 °C 30.20 in /  1022.6 hPa NNW 3.0 mph /  4.8 km/h 6.0 mph /  9.7 km/h 88 % 0.00 in /  0 mm 0 W/m2
19:47 35.8 °F /  2.1 °C 32.6 °F /  0.3 °C 30.20 in /  1022.6 hPa North 5.0 mph /  8 km/h 8.0 mph /  12.9 km/h 88 % 0.00 in /  0 mm 0 W/m2
19:52 35.8 °F /  2.1 °C 32.9 °F /  0.5 °C 30.20 in /  1022.6 hPa North 3.0 mph /  4.8 km/h 6.0 mph /  9.7 km/h 89 % 0.00 in /  0 mm 0 W/m2
19:57 35.6 °F /  2 °C 32.7 °F /  0.4 °C 30.20 in /  1022.6 hPa NNW 2.0 mph /  3.2 km/h 6.0 mph /  9.7 km/h 89 % 0.00 in /  0 mm 0 W/m2
20:02 35.4 °F /  1.9 °C 32.5 °F /  0.3 °C 30.21 in /  1022.9 hPa NNW 4.0 mph /  6.4 km/h 7.0 mph /  11.3 km/h 89 % 0.00 in /  0 mm 0 W/m2
20:03 35.4 °F /  1.9 °C 32.5 °F /  0.3 °C 30.21 in /  1022.9 hPa NNW 5.0 mph /  8 km/h 7.0 mph /  11.3 km/h 89 % 0.00 in /  0 mm 0 W/m2
20:08 35.2 °F /  1.8 °C 32.3 °F /  0.2 °C 30.21 in /  1022.9 hPa NNW 2.0 mph /  3.2 km/h 8.0 mph /  12.9 km/h 89 % 0.00 in /  0 mm 0 W/m2
20:13 35.2 °F /  1.8 °C 32.3 °F /  0.2 °C 30.21 in /  1022.9 hPa North 4.0 mph /  6.4 km/h 8.0 mph /  12.9 km/h 89 % 0.00 in /  0 mm 0 W/m2
20:18 35.2 °F /  1.8 °C 32.3 °F /  0.2 °C 30.21 in /  1022.9 hPa North 4.0 mph /  6.4 km/h 8.0 mph /  12.9 km/h 89 % 0.00 in /  0 mm 0 W/m2
20:21 35.2 °F /  1.8 °C 32.6 °F /  0.3 °C 30.21 in /  1022.9 hPa North 6.0 mph /  9.7 km/h 10.0 mph /  16.1 km/h 90 % 0.00 in /  0 mm 0 W/m2
20:26 35.2 °F /  1.8 °C 32.3 °F /  0.2 °C 30.22 in /  1023.2 hPa NNW 3.0 mph /  4.8 km/h 7.0 mph /  11.3 km/h 89 % 0.00 in /  0 mm 0 W/m2
20:31 35.2 °F /  1.8 °C 32.3 °F /  0.2 °C 30.22 in /  1023.2 hPa North 2.0 mph /  3.2 km/h 5.0 mph /  8 km/h 89 % 0.00 in /  0 mm 0 W/m2
20:36 35.1 °F /  1.7 °C 32.1 °F /  0.1 °C 30.22 in /  1023.2 hPa NNW 3.0 mph /  4.8 km/h 6.0 mph /  9.7 km/h 89 % 0.00 in /  0 mm 0 W/m2
20:41 34.9 °F /  1.6 °C 32.0 °F /  0 °C 30.23 in /  1023.6 hPa NNW 3.0 mph /  4.8 km/h 7.0 mph /  11.3 km/h 89 % 0.00 in /  0 mm 0 W/m2
20:43 34.9 °F /  1.6 °C 32.0 °F /  0 °C 30.23 in /  1023.6 hPa North 1.0 mph /  1.6 km/h 7.0 mph /  11.3 km/h 89 % 0.00 in /  0 mm 0 W/m2
20:48 34.9 °F /  1.6 °C 32.0 °F /  0 °C 30.23 in /  1023.6 hPa North 1.0 mph /  1.6 km/h 4.0 mph /  6.4 km/h 89 % 0.00 in /  0 mm 0 W/m2
20:50 34.9 °F /  1.6 °C 32.0 °F /  0 °C 30.23 in /  1023.6 hPa North 2.0 mph /  3.2 km/h 7.0 mph /  11.3 km/h 89 % 0.00 in /  0 mm 0 W/m2
20:55 35.1 °F /  1.7 °C 32.4 °F /  0.2 °C 30.24 in /  1023.9 hPa North 5.0 mph /  8 km/h 9.0 mph /  14.5 km/h 90 % 0.00 in /  0 mm 0 W/m2
20:56 35.1 °F /  1.7 °C 32.4 °F /  0.2 °C 30.24 in /  1023.9 hPa North 5.0 mph /  8 km/h 9.0 mph /  14.5 km/h 90 % 0.00 in /  0 mm 0 W/m2
21:01 35.1 °F /  1.7 °C 32.1 °F /  0.1 °C 30.24 in /  1023.9 hPa NNW 4.0 mph /  6.4 km/h 10.0 mph /  16.1 km/h 89 % 0.00 in /  0 mm 0 W/m2
21:02 35.1 °F /  1.7 °C 32.1 °F /  0.1 °C 30.24 in /  1023.9 hPa NNW 4.0 mph /  6.4 km/h 10.0 mph /  16.1 km/h 89 % 0.00 in /  0 mm 0 W/m2
21:07 35.1 °F /  1.7 °C 32.1 °F /  0.1 °C 30.24 in /  1023.9 hPa NNW 3.0 mph /  4.8 km/h 6.0 mph /  9.7 km/h 89 % 0.00 in /  0 mm 0 W/m2
21:12 34.9 °F /  1.6 °C 32.0 °F /  0 °C 30.24 in /  1023.9 hPa NNW 6.0 mph /  9.7 km/h 9.0 mph /  14.5 km/h 89 % 0.00 in /  0 mm 0 W/m2
21:17 35.1 °F /  1.7 °C 32.1 °F /  0.1 °C 30.25 in /  1024.3 hPa North 4.0 mph /  6.4 km/h 7.0 mph /  11.3 km/h 89 % 0.00 in /  0 mm 0 W/m2
21:23 35.1 °F /  1.7 °C 32.1 °F /  0.1 °C 30.25 in /  1024.3 hPa NNW 4.0 mph /  6.4 km/h 8.0 mph /  12.9 km/h 89 % 0.00 in /  0 mm 0 W/m2
21:28 35.1 °F /  1.7 °C 32.1 °F /  0.1 °C 30.25 in /  1024.3 hPa NNW 5.0 mph /  8 km/h 9.0 mph /  14.5 km/h 89 % 0.00 in /  0 mm 0 W/m2
21:33 35.1 °F /  1.7 °C 32.1 °F /  0.1 °C 30.25 in /  1024.3 hPa NNW 5.0 mph /  8 km/h 7.0 mph /  11.3 km/h 89 % 0.00 in /  0 mm 0 W/m2
21:35 35.1 °F /  1.7 °C 32.1 °F /  0.1 °C 30.25 in /  1024.3 hPa NNW 4.0 mph /  6.4 km/h 7.0 mph /  11.3 km/h 89 % 0.00 in /  0 mm 0 W/m2
21:40 35.1 °F /  1.7 °C 32.1 °F /  0.1 °C 30.26 in /  1024.6 hPa NNW 4.0 mph /  6.4 km/h 9.0 mph /  14.5 km/h 89 % 0.00 in /  0 mm 0 W/m2
21:46 35.1 °F /  1.7 °C 32.4 °F /  0.2 °C 30.26 in /  1024.6 hPa NNW 3.0 mph /  4.8 km/h 9.0 mph /  14.5 km/h 90 % 0.00 in /  0 mm 0 W/m2
21:50 34.9 °F /  1.6 °C 32.2 °F /  0.1 °C 30.26 in /  1024.6 hPa NNW 4.0 mph /  6.4 km/h 8.0 mph /  12.9 km/h 90 % 0.00 in /  0 mm 0 W/m2
21:55 35.1 °F /  1.7 °C 32.4 °F /  0.2 °C 30.26 in /  1024.6 hPa NNW 4.0 mph /  6.4 km/h 9.0 mph /  14.5 km/h 90 % 0.00 in /  0 mm 0 W/m2
21:58 35.1 °F /  1.7 °C 32.4 °F /  0.2 °C 30.26 in /  1024.6 hPa NNW 6.0 mph /  9.7 km/h 9.0 mph /  14.5 km/h 90 % 0.00 in /  0 mm 0 W/m2
22:03 35.1 °F /  1.7 °C 32.4 °F /  0.2 °C 30.27 in /  1024.9 hPa North 5.0 mph /  8 km/h 9.0 mph /  14.5 km/h 90 % 0.00 in /  0 mm 0 W/m2
22:08 35.1 °F /  1.7 °C 32.4 °F /  0.2 °C 30.27 in /  1024.9 hPa North 2.0 mph /  3.2 km/h 6.0 mph /  9.7 km/h 90 % 0.00 in /  0 mm 0 W/m2
22:13 35.1 °F /  1.7 °C 32.4 °F /  0.2 °C 30.27 in /  1024.9 hPa North 2.0 mph /  3.2 km/h 5.0 mph /  8 km/h 90 % 0.00 in /  0 mm 0 W/m2
22:18 35.1 °F /  1.7 °C 32.4 °F /  0.2 °C 30.27 in /  1024.9 hPa NNW 4.0 mph /  6.4 km/h 8.0 mph /  12.9 km/h 90 % 0.00 in /  0 mm 0 W/m2
22:23 34.9 °F /  1.6 °C 32.2 °F /  0.1 °C 30.28 in /  1025.3 hPa NNW 4.0 mph /  6.4 km/h 7.0 mph /  11.3 km/h 90 % 0.00 in /  0 mm 0 W/m2
22:25 34.9 °F /  1.6 °C 32.2 °F /  0.1 °C 30.28 in /  1025.3 hPa North 3.0 mph /  4.8 km/h 6.0 mph /  9.7 km/h 90 % 0.00 in /  0 mm 0 W/m2
22:30 34.9 °F /  1.6 °C 32.2 °F /  0.1 °C 30.28 in /  1025.3 hPa NNW 4.0 mph /  6.4 km/h 8.0 mph /  12.9 km/h 90 % 0.00 in /  0 mm 0 W/m2
22:32 34.9 °F /  1.6 °C 32.5 °F /  0.3 °C 30.28 in /  1025.3 hPa North 4.0 mph /  6.4 km/h 8.0 mph /  12.9 km/h 91 % 0.00 in /  0 mm 0 W/m2
22:37 34.9 °F /  1.6 °C 32.5 °F /  0.3 °C 30.28 in /  1025.3 hPa NNW 4.0 mph /  6.4 km/h 8.0 mph /  12.9 km/h 91 % 0.00 in /  0 mm 0 W/m2
22:42 34.9 °F /  1.6 °C 32.5 °F /  0.3 °C 30.28 in /  1025.3 hPa NNW 3.0 mph /  4.8 km/h 8.0 mph /  12.9 km/h 91 % 0.00 in /  0 mm 0 W/m2
22:47 34.9 °F /  1.6 °C 32.5 °F /  0.3 °C 30.29 in /  1025.6 hPa NNW 2.0 mph /  3.2 km/h 8.0 mph /  12.9 km/h 91 % 0.00 in /  0 mm 0 W/m2
22:52 34.9 °F /  1.6 °C 32.5 °F /  0.3 °C 30.29 in /  1025.6 hPa NNW 2.0 mph /  3.2 km/h 6.0 mph /  9.7 km/h 91 % 0.00 in /  0 mm 0 W/m2
22:57 34.9 °F /  1.6 °C 32.5 °F /  0.3 °C 30.29 in /  1025.6 hPa North 4.0 mph /  6.4 km/h 8.0 mph /  12.9 km/h 91 % 0.00 in /  0 mm 0 W/m2
23:02 34.9 °F /  1.6 °C 32.5 °F /  0.3 °C 30.29 in /  1025.6 hPa North 5.0 mph /  8 km/h 8.0 mph /  12.9 km/h 91 % 0.00 in /  0 mm 0 W/m2
23:05 34.9 °F /  1.6 °C 32.5 °F /  0.3 °C 30.29 in /  1025.6 hPa North 4.0 mph /  6.4 km/h 7.0 mph /  11.3 km/h 91 % 0.00 in /  0 mm 0 W/m2
23:09 34.9 °F /  1.6 °C 32.5 °F /  0.3 °C 30.29 in /  1025.6 hPa North 4.0 mph /  6.4 km/h 7.0 mph /  11.3 km/h 91 % 0.00 in /  0 mm 0 W/m2
23:14 34.9 °F /  1.6 °C 32.5 °F /  0.3 °C 30.30 in /  1026 hPa North 3.0 mph /  4.8 km/h 8.0 mph /  12.9 km/h 91 % 0.00 in /  0 mm 0 W/m2
23:19 34.9 °F /  1.6 °C 32.5 °F /  0.3 °C 30.30 in /  1026 hPa NNW 5.0 mph /  8 km/h 9.0 mph /  14.5 km/h 91 % 0.00 in /  0 mm 0 W/m2
23:20 34.7 °F /  1.5 °C 32.3 °F /  0.2 °C 30.30 in /  1026 hPa NNW 5.0 mph /  8 km/h 9.0 mph /  14.5 km/h 91 % 0.00 in /  0 mm 0 W/m2
23:26 34.5 °F /  1.4 °C 32.2 °F /  0.1 °C 30.30 in /  1026 hPa NNW 5.0 mph /  8 km/h 7.0 mph /  11.3 km/h 91 % 0.00 in /  0 mm 0 W/m2
23:31 34.5 °F /  1.4 °C 32.2 °F /  0.1 °C 30.30 in /  1026 hPa NNW 5.0 mph /  8 km/h 9.0 mph /  14.5 km/h 91 % 0.00 in /  0 mm 0 W/m2
23:32 34.5 °F /  1.4 °C 32.2 °F /  0.1 °C 30.30 in /  1026 hPa NNW 6.0 mph /  9.7 km/h 9.0 mph /  14.5 km/h 91 % 0.00 in /  0 mm 0 W/m2
23:38 34.5 °F /  1.4 °C 32.2 °F /  0.1 °C 30.30 in /  1026 hPa NNW 6.0 mph /  9.7 km/h 8.0 mph /  12.9 km/h 91 % 0.00 in /  0 mm 0 W/m2
23:40 34.5 °F /  1.4 °C 32.2 °F /  0.1 °C 30.30 in /  1026 hPa NNW 5.0 mph /  8 km/h 7.0 mph /  11.3 km/h 91 % 0.00 in /  0 mm 0 W/m2
23:45 34.5 °F /  1.4 °C 32.2 °F /  0.1 °C 30.30 in /  1026 hPa NNW 5.0 mph /  8 km/h 9.0 mph /  14.5 km/h 91 % 0.00 in /  0 mm 0 W/m2
23:50 34.5 °F /  1.4 °C 32.2 °F /  0.1 °C 30.30 in /  1026 hPa North 6.0 mph /  9.7 km/h 8.0 mph /  12.9 km/h 91 % 0.00 in /  0 mm 0 W/m2
23:54 34.5 °F /  1.4 °C 32.2 °F /  0.1 °C 30.30 in /  1026 hPa NNW 4.0 mph /  6.4 km/h 8.0 mph /  12.9 km/h 91 % 0.00 in /  0 mm 0 W/m2
23:59 34.5 °F /  1.4 °C 32.2 °F /  0.1 °C 30.30 in /  1026 hPa North 4.0 mph /  6.4 km/h 7.0 mph /  11.3 km/h 91 % 0.00 in /  0 mm 0 W/m2
Delerius-Weather
Compliments of Weather Underground - 2.5 mb

Data updates at regular intervals.